sensor_id;sensor_type;location;lat;lon;timestamp;pressure;altitude;pressure_sealevel;temperature;humidity
75221;BME280;63802;53.232;6.570;2023-04-01T00:01:04;99268.81;;;9.28;97.61
75221;BME280;63802;53.232;6.570;2023-04-01T00:03:29;99242.03;;;9.16;97.81
75221;BME280;63802;53.232;6.570;2023-04-01T00:05:57;99274.25;;;9.31;97.72
75221;BME280;63802;53.232;6.570;2023-04-01T00:08:23;99255.22;;;9.17;97.36
75221;BME280;63802;53.232;6.570;2023-04-01T00:10:48;99275.81;;;9.25;97.31
75221;BME280;63802;53.232;6.570;2023-04-01T00:13:14;99275.03;;;9.25;97.80
75221;BME280;63802;53.232;6.570;2023-04-01T00:15:40;99269.22;;;9.30;97.64
75221;BME280;63802;53.232;6.570;2023-04-01T00:18:05;99266.47;;;9.26;97.51
75221;BME280;63802;53.232;6.570;2023-04-01T00:20:32;99271.53;;;9.28;97.51
75221;BME280;63802;53.232;6.570;2023-04-01T00:22:57;99272.72;;;9.27;97.46
75221;BME280;63802;53.232;6.570;2023-04-01T00:25:23;99276.63;;;9.26;97.64
75221;BME280;63802;53.232;6.570;2023-04-01T00:27:49;99265.72;;;9.15;97.71
75221;BME280;63802;53.232;6.570;2023-04-01T00:30:15;99257.94;;;9.10;97.70
75221;BME280;63802;53.232;6.570;2023-04-01T00:32:41;99249.41;;;9.08;97.62
75221;BME280;63802;53.232;6.570;2023-04-01T00:35:07;99275.03;;;9.25;97.53
75221;BME280;63802;53.232;6.570;2023-04-01T00:37:35;99276.59;;;9.22;97.75
75221;BME280;63802;53.232;6.570;2023-04-01T00:40:01;99273.50;;;9.20;97.77
75221;BME280;63802;53.232;6.570;2023-04-01T00:42:26;99273.47;;;9.24;97.80
75221;BME280;63802;53.232;6.570;2023-04-01T00:44:53;99275.03;;;9.25;97.86
75221;BME280;63802;53.232;6.570;2023-04-01T00:47:20;99262.59;;;9.17;97.55
75221;BME280;63802;53.232;6.570;2023-04-01T00:49:48;99278.16;;;9.23;97.54
75221;BME280;63802;53.232;6.570;2023-04-01T00:52:17;99278.91;;;9.24;97.66
75221;BME280;63802;53.232;6.570;2023-04-01T00:54:47;99275.44;;;9.23;97.58
75221;BME280;63802;53.232;6.570;2023-04-01T00:57:19;99274.28;;;9.17;97.67
75221;BME280;63802;53.232;6.570;2023-04-01T00:59:47;99277.38;;;9.19;97.68
75221;BME280;63802;53.232;6.570;2023-04-01T01:02:15;99263.41;;;9.10;97.86
75221;BME280;63802;53.232;6.570;2023-04-01T01:04:41;99276.22;;;9.20;97.76
75221;BME280;63802;53.232;6.570;2023-04-01T01:10:01;99271.94;;;9.23;97.87
75221;BME280;63802;53.232;6.570;2023-04-01T01:23:42;99287.50;;;9.22;97.91
75221;BME280;63802;53.232;6.570;2023-04-01T01:34:55;99294.50;;;9.23;97.81
75221;BME280;63802;53.232;6.570;2023-04-01T01:37:25;99297.22;;;9.23;97.92
75221;BME280;63802;53.232;6.570;2023-04-01T01:39:59;99285.94;;;9.14;97.99
75221;BME280;63802;53.232;6.570;2023-04-01T01:42:27;99289.06;;;9.16;97.84
75221;BME280;63802;53.232;6.570;2023-04-01T01:44:55;99296.44;;;9.19;97.76
75221;BME280;63802;53.232;6.570;2023-04-01T01:47:23;99293.69;;;9.19;97.79
75221;BME280;63802;53.232;6.570;2023-04-01T01:49:49;99299.16;;;9.19;97.95
75221;BME280;63802;53.232;6.570;2023-04-01T01:52:16;99296.81;;;9.25;97.92
75221;BME280;63802;53.232;6.570;2023-04-01T01:54:53;99294.09;;;9.21;97.87
75221;BME280;63802;53.232;6.570;2023-04-01T01:57:24;99294.50;;;9.16;97.99
75221;BME280;63802;53.232;6.570;2023-04-01T01:59:54;99293.72;;;9.16;98.07
75221;BME280;63802;53.232;6.570;2023-04-01T02:02:21;99304.59;;;9.19;97.95
75221;BME280;63802;53.232;6.570;2023-04-01T02:04:48;99303.03;;;9.22;97.87
75221;BME280;63802;53.232;6.570;2023-04-01T02:07:27;99282.84;;;9.05;98.16
75221;BME280;63802;53.232;6.570;2023-04-01T02:09:56;99295.25;;;9.10;97.94
75221;BME280;63802;53.232;6.570;2023-04-01T02:12:22;99304.59;;;9.12;98.07
75221;BME280;63802;53.232;6.570;2023-04-01T02:14:53;99306.94;;;9.17;98.12
75221;BME280;63802;53.232;6.570;2023-04-01T02:17:22;99317.44;;;9.15;97.88
75221;BME280;63802;53.232;6.570;2023-04-01T02:19:53;99313.56;;;9.16;98.24
75221;BME280;63802;53.232;6.570;2023-04-01T02:22:23;99321.72;;;9.23;97.99
75221;BME280;63802;53.232;6.570;2023-04-01T02:24:50;99314.72;;;9.15;97.80
75221;BME280;63802;53.232;6.570;2023-04-01T02:27:17;99298.38;;;9.08;97.98
75221;BME280;63802;53.232;6.570;2023-04-01T02:29:43;99310.84;;;9.09;98.08
75221;BME280;63802;53.232;6.570;2023-04-01T02:32:09;99320.16;;;9.15;98.11
75221;BME280;63802;53.232;6.570;2023-04-01T02:34:36;99314.72;;;9.15;97.89
75221;BME280;63802;53.232;6.570;2023-04-01T02:37:01;99316.25;;;9.13;97.97
75221;BME280;63802;53.232;6.570;2023-04-01T02:39:27;99327.53;;;9.18;97.93
75221;BME280;63802;53.232;6.570;2023-04-01T02:41:53;99329.09;;;9.12;98.12
75221;BME280;63802;53.232;6.570;2023-04-01T02:44:18;99324.81;;;9.11;98.15
75221;BME280;63802;53.232;6.570;2023-04-01T02:46:43;99328.31;;;9.15;98.25
75221;BME280;63802;53.232;6.570;2023-04-01T02:49:09;99327.94;;;9.13;98.15
75221;BME280;63802;53.232;6.570;2023-04-01T02:51:35;99312.38;;;9.00;98.27
75221;BME280;63802;53.232;6.570;2023-04-01T02:54:01;99320.91;;;9.05;97.93
75221;BME280;63802;53.232;6.570;2023-04-01T02:56:27;99337.25;;;9.12;98.19
75221;BME280;63802;53.232;6.570;2023-04-01T02:58:53;99338.41;;;9.15;98.24
75221;BME280;63802;53.232;6.570;2023-04-01T03:01:19;99334.94;;;9.11;97.96
75221;BME280;63802;53.232;6.570;2023-04-01T03:03:45;99332.59;;;9.09;98.42
75221;BME280;63802;53.232;6.570;2023-04-01T03:06:13;99338.03;;;9.09;98.31
75221;BME280;63802;53.232;6.570;2023-04-01T03:08:38;99339.19;;;9.08;98.17
75221;BME280;63802;53.232;6.570;2023-04-01T03:11:04;99350.84;;;9.05;98.24
75221;BME280;63802;53.232;6.570;2023-04-01T03:13:30;99339.56;;;8.96;98.17
75221;BME280;63802;53.232;6.570;2023-04-01T03:15:55;99344.25;;;8.99;98.33
75221;BME280;63802;53.232;6.570;2023-04-01T03:18:21;99325.19;;;8.85;98.08
75221;BME280;63802;53.232;6.570;2023-04-01T03:20:47;99346.56;;;8.94;98.21
75221;BME280;63802;53.232;6.570;2023-04-01T03:23:12;99338.41;;;8.90;98.24
75221;BME280;63802;53.232;6.570;2023-04-01T03:25:38;99361.75;;;9.02;98.32
75221;BME280;63802;53.232;6.570;2023-04-01T03:28:03;99336.47;;;8.87;98.45
75221;BME280;63802;53.232;6.570;2023-04-01T03:30:29;99369.88;;;8.98;98.42
75221;BME280;63802;53.232;6.570;2023-04-01T03:32:58;99355.91;;;8.96;98.33
75221;BME280;63802;53.232;6.570;2023-04-01T03:35:24;99362.91;;;8.97;98.38
75221;BME280;63802;53.232;6.570;2023-04-01T03:37:51;99364.44;;;8.98;98.66
75221;BME280;63802;53.232;6.570;2023-04-01T03:40:17;99361.34;;;8.96;98.05
75221;BME280;63802;53.232;6.570;2023-04-01T03:42:42;99366.38;;;8.98;98.44
75221;BME280;63802;53.232;6.570;2023-04-01T03:45:08;99371.44;;;8.96;98.44
75221;BME280;63802;53.232;6.570;2023-04-01T03:47:34;99359.00;;;8.91;98.44
75221;BME280;63802;53.232;6.570;2023-04-01T03:50:00;99368.34;;;8.97;98.44
75221;BME280;63802;53.232;6.570;2023-04-01T03:52:25;99371.84;;;8.94;98.44
75221;BME280;63802;53.232;6.570;2023-04-01T03:54:50;99375.31;;;8.91;98.05
75221;BME280;63802;53.232;6.570;2023-04-01T03:57:16;99386.59;;;8.97;98.39
75221;BME280;63802;53.232;6.570;2023-04-01T03:59:41;99381.53;;;8.95;98.49
75221;BME280;63802;53.232;6.570;2023-04-01T04:02:07;99384.25;;;8.95;98.48
75221;BME280;63802;53.232;6.570;2023-04-01T04:04:32;99383.88;;;8.93;98.58
75221;BME280;63802;53.232;6.570;2023-04-01T04:06:57;99381.53;;;8.92;98.50
75221;BME280;63802;53.232;6.570;2023-04-01T04:09:23;99384.63;;;8.90;98.64
75221;BME280;63802;53.232;6.570;2023-04-01T04:11:49;99388.53;;;8.96;98.35
75221;BME280;63802;53.232;6.570;2023-04-01T04:14:15;99391.66;;;8.95;98.61
75221;BME280;63802;53.232;6.570;2023-04-01T04:16:41;99393.22;;;8.99;98.79
75221;BME280;63802;53.232;6.570;2023-04-01T04:19:06;99399.44;;;8.96;98.76
75221;BME280;63802;53.232;6.570;2023-04-01T04:21:31;99396.72;;;8.96;98.34
75221;BME280;63802;53.232;6.570;2023-04-01T04:23:58;99404.09;;;8.92;98.62
75221;BME280;63802;53.232;6.570;2023-04-01T04:26:24;99399.81;;;8.95;98.49
75221;BME280;63802;53.232;6.570;2023-04-01T04:28:51;99406.81;;;8.99;98.70
75221;BME280;63802;53.232;6.570;2023-04-01T04:31:25;99411.47;;;8.99;98.65
75221;BME280;63802;53.232;6.570;2023-04-01T04:33:51;99416.91;;;8.99;98.73
75221;BME280;63802;53.232;6.570;2023-04-01T04:36:17;99413.41;;;8.98;98.65
75221;BME280;63802;53.232;6.570;2023-04-01T04:38:43;99410.69;;;8.91;98.43
75221;BME280;63802;53.232;6.570;2023-04-01T04:41:10;99409.53;;;8.92;98.50
75221;BME280;63802;53.232;6.570;2023-04-01T04:43:37;99422.75;;;8.94;98.59
75221;BME280;63802;53.232;6.570;2023-04-01T04:46:09;99439.06;;;9.01;98.62
75221;BME280;63802;53.232;6.570;2023-04-01T04:48:36;99433.63;;;8.97;98.57
75221;BME280;63802;53.232;6.570;2023-04-01T04:51:02;99411.06;;;8.86;98.40
75221;BME280;63802;53.232;6.570;2023-04-01T04:53:28;99442.19;;;8.99;98.71
75221;BME280;63802;53.232;6.570;2023-04-01T04:55:53;99435.94;;;8.95;98.37
75221;BME280;63802;53.232;6.570;2023-04-01T04:58:19;99445.69;;;9.00;98.79
75221;BME280;63802;53.232;6.570;2023-04-01T05:00:46;99449.97;;;9.01;98.78
75221;BME280;63802;53.232;6.570;2023-04-01T05:03:12;99445.31;;;9.01;98.77
75221;BME280;63802;53.232;6.570;2023-04-01T05:05:38;99439.84;;;8.94;98.81
75221;BME280;63802;53.232;6.570;2023-04-01T05:08:04;99451.50;;;8.98;98.71
75221;BME280;63802;53.232;6.570;2023-04-01T05:10:29;99457.72;;;8.99;98.85
75221;BME280;63802;53.232;6.570;2023-04-01T05:12:57;99464.34;;;9.01;98.60
75221;BME280;63802;53.232;6.570;2023-04-01T05:15:23;99460.44;;;9.02;98.66
75221;BME280;63802;53.232;6.570;2023-04-01T05:17:48;99466.31;;;9.04;98.54
75221;BME280;63802;53.232;6.570;2023-04-01T05:20:14;99469.81;;;9.08;98.79
75221;BME280;63802;53.232;6.570;2023-04-01T05:22:40;99475.25;;;9.08;98.57
75221;BME280;63802;53.232;6.570;2023-04-01T05:25:06;99474.84;;;9.06;98.75
75221;BME280;63802;53.232;6.570;2023-04-01T05:27:32;99474.84;;;9.06;98.69
75221;BME280;63802;53.232;6.570;2023-04-01T05:29:58;99470.56;;;9.05;98.64
75221;BME280;63802;53.232;6.570;2023-04-01T05:32:23;99489.59;;;9.05;98.97
75221;BME280;63802;53.232;6.570;2023-04-01T05:34:53;99487.69;;;9.09;98.69
75221;BME280;63802;53.232;6.570;2023-04-01T05:37:19;99501.31;;;9.09;98.61
75221;BME280;63802;53.232;6.570;2023-04-01T05:39:47;99489.22;;;9.03;98.63
75221;BME280;63802;53.232;6.570;2023-04-01T05:42:13;99490.41;;;9.09;98.77
75221;BME280;63802;53.232;6.570;2023-04-01T05:44:39;99508.28;;;9.10;98.67
75221;BME280;63802;53.232;6.570;2023-04-01T05:47:04;99503.22;;;9.05;98.94
75221;BME280;63802;53.232;6.570;2023-04-01T05:49:30;99502.44;;;9.08;98.54
75221;BME280;63802;53.232;6.570;2023-04-01T05:51:56;99510.63;;;9.08;98.66
75221;BME280;63802;53.232;6.570;2023-04-01T05:54:24;99511.00;;;9.07;98.61
75221;BME280;63802;53.232;6.570;2023-04-01T05:56:50;99511.38;;;9.05;98.60
75221;BME280;63802;53.232;6.570;2023-04-01T05:59:15;99518.38;;;9.10;98.57
75221;BME280;63802;53.232;6.570;2023-04-01T06:01:41;99526.94;;;9.12;98.92
75221;BME280;63802;53.232;6.570;2023-04-01T06:04:06;99523.84;;;9.13;98.87
75221;BME280;63802;53.232;6.570;2023-04-01T06:06:32;99523.47;;;9.11;98.77
75221;BME280;63802;53.232;6.570;2023-04-01T06:09:06;99522.66;;;9.07;98.63
75221;BME280;63802;53.232;6.570;2023-04-01T06:12:06;99534.38;;;9.18;98.82
75221;BME280;63802;53.232;6.570;2023-04-01T06:14:48;99539.41;;;9.20;98.90
75221;BME280;63802;53.232;6.570;2023-04-01T06:20:20;99546.44;;;9.24;98.76
75221;BME280;63802;53.232;6.570;2023-04-01T06:23:20;99548.38;;;9.27;98.87
75221;BME280;63802;53.232;6.570;2023-04-01T06:45:31;99587.69;;;9.37;98.71
75221;BME280;63802;53.232;6.570;2023-04-01T06:48:05;99593.13;;;9.37;98.47
75221;BME280;63802;53.232;6.570;2023-04-01T06:50:58;99591.59;;;9.47;98.59
75221;BME280;63802;53.232;6.570;2023-04-01T06:53:36;99596.28;;;9.46;98.80
75221;BME280;63802;53.232;6.570;2023-04-01T06:56:07;99590.03;;;9.42;98.50
75221;BME280;63802;53.232;6.570;2023-04-01T07:01:10;99605.25;;;9.54;98.56
75221;BME280;63802;53.232;6.570;2023-04-01T07:03:51;99606.81;;;9.55;98.50
75221;BME280;63802;53.232;6.570;2023-04-01T07:06:39;99611.88;;;9.60;98.36
75221;BME280;63802;53.232;6.570;2023-04-01T07:09:14;99614.19;;;9.58;98.32
75221;BME280;63802;53.232;6.570;2023-04-01T07:11:42;99616.53;;;9.56;98.56
75221;BME280;63802;53.232;6.570;2023-04-01T07:14:20;99610.69;;;9.54;98.21
75221;BME280;63802;53.232;6.570;2023-04-01T07:16:55;99620.44;;;9.62;98.41
75221;BME280;63802;53.232;6.570;2023-04-01T07:20:50;99628.25;;;9.67;98.22
75221;BME280;63802;53.232;6.570;2023-04-01T07:22:48;99639.91;;;9.67;98.32
75221;BME280;63802;53.232;6.570;2023-04-01T07:25:24;99638.34;;;9.70;98.13
75221;BME280;63802;53.232;6.570;2023-04-01T07:27:53;99631.75;;;9.74;98.28
75221;BME280;63802;53.232;6.570;2023-04-01T07:30:22;99650.09;;;9.88;98.02
75221;BME280;63802;53.232;6.570;2023-04-01T07:35:40;99652.44;;;10.00;97.85
75221;BME280;63802;53.232;6.570;2023-04-01T07:38:34;99661.03;;;10.09;97.84
75221;BME280;63802;53.232;6.570;2023-04-01T07:49:49;99672.78;;;10.41;97.53
75221;BME280;63802;53.232;6.570;2023-04-01T07:52:29;99667.72;;;10.36;97.20
75221;BME280;63802;53.232;6.570;2023-04-01T07:55:09;99679.38;;;10.37;97.09
75221;BME280;63802;53.232;6.570;2023-04-01T08:00:27;99691.84;;;10.31;96.78
75221;BME280;63802;53.232;6.570;2023-04-01T08:03:49;99701.97;;;10.30;96.64
75221;BME280;63802;53.232;6.570;2023-04-01T08:06:15;99692.25;;;10.29;96.36
75221;BME280;63802;53.232;6.570;2023-04-01T08:22:03;99719.50;;;10.93;95.31
75221;BME280;63802;53.232;6.570;2023-04-01T08:24:39;99732.00;;;10.90;95.07
75221;BME280;63802;53.232;6.570;2023-04-01T08:27:58;99722.25;;;10.86;94.78
75221;BME280;63802;53.232;6.570;2023-04-01T08:30:20;99727.34;;;10.69;94.29
75221;BME280;63802;53.232;6.570;2023-04-01T08:33:30;99734.31;;;10.70;94.07
75221;BME280;63802;53.232;6.570;2023-04-01T08:38:26;99745.25;;;10.77;93.95
75221;BME280;63802;53.232;6.570;2023-04-01T08:40:58;99740.97;;;10.69;93.76
75221;BME280;63802;53.232;6.570;2023-04-01T08:46:00;99755.38;;;10.73;93.89
75221;BME280;63802;53.232;6.570;2023-04-01T08:51:21;99767.06;;;10.49;93.63
75221;BME280;63802;53.232;6.570;2023-04-01T08:57:00;99779.38;;;10.08;93.56
75221;BME280;63802;53.232;6.570;2023-04-01T08:59:47;99787.13;;;9.99;93.58
75221;BME280;63802;53.232;6.570;2023-04-01T09:14:06;99824.31;;;9.60;93.37
75221;BME280;63802;53.232;6.570;2023-04-01T09:38:59;99846.91;;;9.64;92.82
75221;BME280;63802;53.232;6.570;2023-04-01T09:41:32;99871.84;;;9.69;92.65
75221;BME280;63802;53.232;6.570;2023-04-01T09:44:50;99864.72;;;9.54;92.45
75221;BME280;63802;53.232;6.570;2023-04-01T09:47:15;99879.91;;;9.55;92.34
75221;BME280;63802;53.232;6.570;2023-04-01T09:49:59;99880.72;;;9.63;92.49
75221;BME280;63802;53.232;6.570;2023-04-01T09:53:19;99889.19;;;9.51;92.43
75221;BME280;63802;53.232;6.570;2023-04-01T10:15:11;99916.59;;;9.21;92.39
75221;BME280;63802;53.232;6.570;2023-04-01T10:21:16;99936.41;;;9.21;92.23
75221;BME280;63802;53.232;6.570;2023-04-01T10:24:13;99933.00;;;9.31;92.42
75221;BME280;63802;53.232;6.570;2023-04-01T10:40:38;99968.84;;;9.00;92.27
75221;BME280;63802;53.232;6.570;2023-04-01T10:46:27;99977.94;;;9.11;92.39
75221;BME280;63802;53.232;6.570;2023-04-01T10:49:25;99978.69;;;9.12;92.01
75221;BME280;63802;53.232;6.570;2023-04-01T10:52:45;99979.31;;;8.98;91.87
75221;BME280;63802;53.232;6.570;2023-04-01T10:55:28;99980.81;;;8.92;91.62
75221;BME280;63802;53.232;6.570;2023-04-01T11:01:27;99987.38;;;8.88;91.89
75221;BME280;63802;53.232;6.570;2023-04-01T11:04:37;100001.06;;;8.65;91.89
75221;BME280;63802;53.232;6.570;2023-04-01T11:13:01;99999.47;;;8.94;92.25
75221;BME280;63802;53.232;6.570;2023-04-01T11:24:00;100024.19;;;9.11;91.33
75221;BME280;63802;53.232;6.570;2023-04-01T11:32:22;100035.75;;;9.38;90.83
75221;BME280;63802;53.232;6.570;2023-04-01T11:34:57;100038.88;;;9.40;90.68
75221;BME280;63802;53.232;6.570;2023-04-01T11:40:46;100043.53;;;9.39;90.23
75221;BME280;63802;53.232;6.570;2023-04-01T11:43:22;100054.50;;;9.47;90.31
75221;BME280;63802;53.232;6.570;2023-04-01T11:48:51;100063.00;;;9.41;89.92
75221;BME280;63802;53.232;6.570;2023-04-01T12:03:21;100095.66;;;9.38;89.50
75221;BME280;63802;53.232;6.570;2023-04-01T12:09:04;100104.19;;;9.36;89.09
75221;BME280;63802;53.232;6.570;2023-04-01T12:14:21;100115.78;;;9.30;88.98
75221;BME280;63802;53.232;6.570;2023-04-01T12:19:44;100103.69;;;9.27;88.85
75221;BME280;63802;53.232;6.570;2023-04-01T12:25:07;100131.28;;;9.59;89.01
75221;BME280;63802;53.232;6.570;2023-04-01T12:27:45;100129.84;;;9.35;88.61
75221;BME280;63802;53.232;6.570;2023-04-01T12:30:41;100137.25;;;9.38;88.87
75221;BME280;63802;53.232;6.570;2023-04-01T12:33:24;100138.53;;;9.44;88.73
75221;BME280;63802;53.232;6.570;2023-04-01T12:36:09;100150.75;;;9.28;87.95
75221;BME280;63802;53.232;6.570;2023-04-01T12:41:29;100174.09;;;9.29;88.20
75221;BME280;63802;53.232;6.570;2023-04-01T12:44:28;100170.63;;;9.28;88.30
75221;BME280;63802;53.232;6.570;2023-04-01T12:47:18;100169.94;;;9.38;87.85
75221;BME280;63802;53.232;6.570;2023-04-01T12:49:57;100167.34;;;9.49;88.08
75221;BME280;63802;53.232;6.570;2023-04-01T12:52:40;100167.22;;;9.38;87.83
75221;BME280;63802;53.232;6.570;2023-04-01T13:01:16;100188.63;;;9.10;87.69
75221;BME280;63802;53.232;6.570;2023-04-01T13:06:49;100200.25;;;9.07;87.87
75221;BME280;63802;53.232;6.570;2023-04-01T13:09:40;100198.16;;;9.23;88.12
75221;BME280;63802;53.232;6.570;2023-04-01T13:12:17;100205.56;;;9.26;87.83
75221;BME280;63802;53.232;6.570;2023-04-01T13:15:04;100213.53;;;9.12;87.45
75221;BME280;63802;53.232;6.570;2023-04-01T13:20:29;100221.25;;;9.07;87.49
75221;BME280;63802;53.232;6.570;2023-04-01T13:23:14;100229.81;;;9.09;87.37
75221;BME280;63802;53.232;6.570;2023-04-01T13:29:13;100236.41;;;9.08;87.15
75221;BME280;63802;53.232;6.570;2023-04-01T13:34:32;100244.25;;;9.13;86.84
75221;BME280;63802;53.232;6.570;2023-04-01T13:40:04;100256.34;;;9.15;86.64
75221;BME280;63802;53.232;6.570;2023-04-01T13:42:47;100259.81;;;9.12;86.80
75221;BME280;63802;53.232;6.570;2023-04-01T13:45:38;100252.38;;;9.09;86.69
75221;BME280;63802;53.232;6.570;2023-04-01T13:48:35;100278.81;;;9.09;86.83
75221;BME280;63802;53.232;6.570;2023-04-01T13:51:15;100241.22;;;8.92;86.69
75221;BME280;63802;53.232;6.570;2023-04-01T13:54:00;100278.22;;;9.22;86.36
75221;BME280;63802;53.232;6.570;2023-04-01T14:13:15;100318.31;;;8.54;86.95
75221;BME280;63802;53.232;6.570;2023-04-01T14:16:04;100328.44;;;8.57;86.56
75221;BME280;63802;53.232;6.570;2023-04-01T14:21:32;100331.25;;;8.41;86.39
75221;BME280;63802;53.232;6.570;2023-04-01T14:38:21;100371.97;;;8.38;86.86
75221;BME280;63802;53.232;6.570;2023-04-01T14:44:18;100391.66;;;8.31;87.13
75221;BME280;63802;53.232;6.570;2023-04-01T14:49:47;100397.69;;;8.25;86.71
75221;BME280;63802;53.232;6.570;2023-04-01T14:58:07;100418.66;;;7.89;86.60
75221;BME280;63802;53.232;6.570;2023-04-01T15:06:33;100438.13;;;7.91;86.87
75221;BME280;63802;53.232;6.570;2023-04-01T15:12:01;100443.41;;;7.84;86.91
75221;BME280;63802;53.232;6.570;2023-04-01T15:17:34;100451.88;;;7.83;86.77
75221;BME280;63802;53.232;6.570;2023-04-01T15:25:45;100447.97;;;7.49;86.78
75221;BME280;63802;53.232;6.570;2023-04-01T15:28:28;100476.88;;;7.57;86.70
75221;BME280;63802;53.232;6.570;2023-04-01T15:31:04;100489.66;;;7.57;86.87
75221;BME280;63802;53.232;6.570;2023-04-01T15:36:40;100495.88;;;7.57;87.72
75221;BME280;63802;53.232;6.570;2023-04-01T15:47:32;100539.09;;;7.34;86.99
75221;BME280;63802;53.232;6.570;2023-04-01T16:01:02;100556.66;;;7.25;86.81
75221;BME280;63802;53.232;6.570;2023-04-01T16:03:39;100559.94;;;7.03;87.00
75221;BME280;63802;53.232;6.570;2023-04-01T16:06:28;100572.28;;;7.00;87.07
75221;BME280;63802;53.232;6.570;2023-04-01T16:09:26;100555.13;;;6.84;87.22
75221;BME280;63802;53.232;6.570;2023-04-01T16:12:11;100590.72;;;6.95;87.28
75221;BME280;63802;53.232;6.570;2023-04-01T16:18:04;100613.09;;;6.92;87.25
75221;BME280;63802;53.232;6.570;2023-04-01T16:20:44;100598.00;;;6.79;87.48
75221;BME280;63802;53.232;6.570;2023-04-01T16:26:24;100615.94;;;6.83;87.70
75221;BME280;63802;53.232;6.570;2023-04-01T16:29:06;100628.25;;;6.81;88.01
75221;BME280;63802;53.232;6.570;2023-04-01T16:31:45;100604.09;;;6.63;87.52
75221;BME280;63802;53.232;6.570;2023-04-01T16:34:17;100619.25;;;6.77;87.85
75221;BME280;63802;53.232;6.570;2023-04-01T16:44:46;100662.84;;;6.59;88.76
75221;BME280;63802;53.232;6.570;2023-04-01T16:47:17;100668.59;;;6.58;88.50
75221;BME280;63802;53.232;6.570;2023-04-01T16:53:02;100686.22;;;6.52;88.65
75221;BME280;63802;53.232;6.570;2023-04-01T16:55:56;100691.97;;;6.50;89.16
75221;BME280;63802;53.232;6.570;2023-04-01T16:59:04;100687.91;;;6.44;89.21
75221;BME280;63802;53.232;6.570;2023-04-01T17:01:50;100695.69;;;6.46;89.36
75221;BME280;63802;53.232;6.570;2023-04-01T17:04:26;100698.31;;;6.42;89.13
75221;BME280;63802;53.232;6.570;2023-04-01T17:09:55;100700.00;;;6.35;88.93
75221;BME280;63802;53.232;6.570;2023-04-01T17:20:50;100730.47;;;6.32;88.75
75221;BME280;63802;53.232;6.570;2023-04-01T17:23:24;100744.66;;;6.29;88.42
75221;BME280;63802;53.232;6.570;2023-04-01T17:29:00;100752.44;;;6.18;88.69
75221;BME280;63802;53.232;6.570;2023-04-01T17:32:00;100759.44;;;6.19;88.25
75221;BME280;63802;53.232;6.570;2023-04-01T17:42:45;100791.44;;;6.05;88.44
75221;BME280;63802;53.232;6.570;2023-04-01T17:53:24;100818.97;;;5.95;88.63
75221;BME280;63802;53.232;6.570;2023-04-01T17:56:12;100823.56;;;5.94;88.77
75221;BME280;63802;53.232;6.570;2023-04-01T18:01:39;100834.25;;;5.91;88.77
75221;BME280;63802;53.232;6.570;2023-04-01T18:04:08;100841.47;;;5.87;88.80
75221;BME280;63802;53.232;6.570;2023-04-01T18:09:31;100867.75;;;5.86;89.23
75221;BME280;63802;53.232;6.570;2023-04-01T18:17:45;100888.13;;;5.84;88.66
75221;BME280;63802;53.232;6.570;2023-04-01T18:28:59;100911.31;;;5.73;89.07
75221;BME280;63802;53.232;6.570;2023-04-01T18:31:42;100921.94;;;5.78;88.72
75221;BME280;63802;53.232;6.570;2023-04-01T18:34:18;100923.41;;;5.75;88.70
75221;BME280;63802;53.232;6.570;2023-04-01T18:37:00;100939.66;;;5.67;88.58
75221;BME280;63802;53.232;6.570;2023-04-01T18:39:40;100935.75;;;5.56;88.62
75221;BME280;63802;53.232;6.570;2023-04-01T18:44:50;100953.44;;;5.53;88.51
75221;BME280;63802;53.232;6.570;2023-04-01T18:47:33;100962.03;;;5.55;88.26
75221;BME280;63802;53.232;6.570;2023-04-01T18:50:15;100964.25;;;5.53;88.56
75221;BME280;63802;53.232;6.570;2023-04-01T18:52:46;100976.06;;;5.49;88.36
75221;BME280;63802;53.232;6.570;2023-04-01T18:55:22;100983.03;;;5.50;88.40
75221;BME280;63802;53.232;6.570;2023-04-01T18:57:54;100980.03;;;5.42;88.85
75221;BME280;63802;53.232;6.570;2023-04-01T19:00:26;100995.66;;;5.46;88.56
75221;BME280;63802;53.232;6.570;2023-04-01T19:02:55;101010.47;;;5.39;88.36
75221;BME280;63802;53.232;6.570;2023-04-01T19:05:30;101003.00;;;5.36;88.41
75221;BME280;63802;53.232;6.570;2023-04-01T19:08:22;101011.59;;;5.38;87.87
75221;BME280;63802;53.232;6.570;2023-04-01T19:18:55;101031.03;;;5.23;87.83
75221;BME280;63802;53.232;6.570;2023-04-01T19:26:47;101053.63;;;5.19;88.02
75221;BME280;63802;53.232;6.570;2023-04-01T19:29:43;101069.88;;;5.19;87.95
75221;BME280;63802;53.232;6.570;2023-04-01T19:32:30;101069.56;;;5.20;87.55
75221;BME280;63802;53.232;6.570;2023-04-01T19:38:30;101084.50;;;5.09;87.46
75221;BME280;63802;53.232;6.570;2023-04-01T19:41:54;101088.66;;;5.15;87.83
75221;BME280;63802;53.232;6.570;2023-04-01T19:46:53;101097.72;;;5.02;87.53
75221;BME280;63802;53.232;6.570;2023-04-01T19:49:42;101097.72;;;5.02;87.28
75221;BME280;63802;53.232;6.570;2023-04-01T19:52:29;101104.72;;;4.95;87.38
75221;BME280;63802;53.232;6.570;2023-04-01T20:02:43;101139.09;;;4.94;87.26
75221;BME280;63802;53.232;6.570;2023-04-01T20:13:51;101149.53;;;4.79;86.94
75221;BME280;63802;53.232;6.570;2023-04-01T20:16:20;101162.13;;;4.83;87.12
75221;BME280;63802;53.232;6.570;2023-04-01T20:18:54;101175.97;;;4.82;86.98
75221;BME280;63802;53.232;6.570;2023-04-01T20:21:37;101176.75;;;4.82;86.80
75221;BME280;63802;53.232;6.570;2023-04-01T20:39:03;101214.91;;;4.72;86.51
75221;BME280;63802;53.232;6.570;2023-04-01T20:41:10;101222.53;;;4.70;86.79
75221;BME280;63802;53.232;6.570;2023-04-01T20:43:58;101224.91;;;4.71;86.62
75221;BME280;63802;53.232;6.570;2023-04-01T20:46:43;101230.13;;;4.68;86.64
75221;BME280;63802;53.232;6.570;2023-04-01T20:49:21;101199.22;;;4.52;86.63
75221;BME280;63802;53.232;6.570;2023-04-01T20:51:59;101236.34;;;4.68;86.54
75221;BME280;63802;53.232;6.570;2023-04-01T20:57:18;101249.38;;;4.66;86.06
75221;BME280;63802;53.232;6.570;2023-04-01T21:02:59;101252.53;;;4.60;85.77
75221;BME280;63802;53.232;6.570;2023-04-01T21:05:31;101265.56;;;4.58;85.69
75221;BME280;63802;53.232;6.570;2023-04-01T21:11:00;101272.06;;;4.57;85.88
75221;BME280;63802;53.232;6.570;2023-04-01T21:16:11;101276.97;;;4.55;85.68
75221;BME280;63802;53.232;6.570;2023-04-01T21:19:03;101284.91;;;4.51;85.69